sensor_id;sensor_type;location;lat;lon;timestamp;temperature;humidity
52879;DHT22;38747;53.140;6.498;2023-01-10T00:00:11;4.00;99.90
52879;DHT22;38747;53.140;6.498;2023-01-10T00:02:38;3.90;99.90
52879;DHT22;38747;53.140;6.498;2023-01-10T00:05:04;3.90;99.90
52879;DHT22;38747;53.140;6.498;2023-01-10T00:07:30;3.90;99.90
52879;DHT22;38747;53.140;6.498;2023-01-10T00:09:55;3.90;99.90
52879;DHT22;38747;53.140;6.498;2023-01-10T00:12:21;3.90;99.90
52879;DHT22;38747;53.140;6.498;2023-01-10T00:15:05;3.90;99.90
52879;DHT22;38747;53.140;6.498;2023-01-10T00:17:31;3.80;99.90
52879;DHT22;38747;53.140;6.498;2023-01-10T00:19:57;3.80;99.90
52879;DHT22;38747;53.140;6.498;2023-01-10T00:22:22;3.80;99.90
52879;DHT22;38747;53.140;6.498;2023-01-10T00:24:50;3.90;99.90
52879;DHT22;38747;53.140;6.498;2023-01-10T00:27:16;3.90;99.90
52879;DHT22;38747;53.140;6.498;2023-01-10T00:29:47;4.00;99.90
52879;DHT22;38747;53.140;6.498;2023-01-10T00:32:12;4.10;99.90
52879;DHT22;38747;53.140;6.498;2023-01-10T00:34:38;4.20;99.90
52879;DHT22;38747;53.140;6.498;2023-01-10T00:37:03;4.20;99.90
52879;DHT22;38747;53.140;6.498;2023-01-10T00:39:29;4.30;99.90
52879;DHT22;38747;53.140;6.498;2023-01-10T00:41:55;4.40;99.90
52879;DHT22;38747;53.140;6.498;2023-01-10T00:44:39;4.30;99.90
52879;DHT22;38747;53.140;6.498;2023-01-10T00:47:05;4.40;99.90
52879;DHT22;38747;53.140;6.498;2023-01-10T00:49:31;4.40;99.90
52879;DHT22;38747;53.140;6.498;2023-01-10T00:51:56;4.50;99.90
52879;DHT22;38747;53.140;6.498;2023-01-10T00:54:24;4.50;99.90
52879;DHT22;38747;53.140;6.498;2023-01-10T00:56:50;4.60;99.90
52879;DHT22;38747;53.140;6.498;2023-01-10T00:59:16;4.60;99.90
52879;DHT22;38747;53.140;6.498;2023-01-10T01:01:41;4.70;99.90
52879;DHT22;38747;53.140;6.498;2023-01-10T01:04:07;4.70;99.90
52879;DHT22;38747;53.140;6.498;2023-01-10T01:06:33;4.80;99.90
52879;DHT22;38747;53.140;6.498;2023-01-10T01:08:58;4.80;99.90
52879;DHT22;38747;53.140;6.498;2023-01-10T01:11:25;4.80;99.90
52879;DHT22;38747;53.140;6.498;2023-01-10T01:13:50;4.80;99.90
52879;DHT22;38747;53.140;6.498;2023-01-10T01:16:16;4.90;99.90
52879;DHT22;38747;53.140;6.498;2023-01-10T01:18:42;4.90;99.90
52879;DHT22;38747;53.140;6.498;2023-01-10T01:21:08;5.00;99.90
52879;DHT22;38747;53.140;6.498;2023-01-10T01:23:34;4.90;99.90
52879;DHT22;38747;53.140;6.498;2023-01-10T01:26:00;4.90;99.90
52879;DHT22;38747;53.140;6.498;2023-01-10T01:28:26;4.80;99.90
52879;DHT22;38747;53.140;6.498;2023-01-10T01:30:52;4.80;99.90
52879;DHT22;38747;53.140;6.498;2023-01-10T01:33:18;4.80;99.90
52879;DHT22;38747;53.140;6.498;2023-01-10T01:35:45;4.80;99.90
52879;DHT22;38747;53.140;6.498;2023-01-10T01:38:12;4.70;99.90
52879;DHT22;38747;53.140;6.498;2023-01-10T01:40:38;4.80;99.90
52879;DHT22;38747;53.140;6.498;2023-01-10T01:43:22;4.70;99.90
52879;DHT22;38747;53.140;6.498;2023-01-10T01:45:48;4.70;99.90
52879;DHT22;38747;53.140;6.498;2023-01-10T01:51:17;4.70;99.90
52879;DHT22;38747;53.140;6.498;2023-01-10T01:53:48;4.70;99.90
52879;DHT22;38747;53.140;6.498;2023-01-10T01:56:24;4.60;99.90
52879;DHT22;38747;53.140;6.498;2023-01-10T02:01:44;4.60;99.90
52879;DHT22;38747;53.140;6.498;2023-01-10T02:04:14;4.60;99.90
52879;DHT22;38747;53.140;6.498;2023-01-10T02:06:41;4.60;99.90
52879;DHT22;38747;53.140;6.498;2023-01-10T02:09:20;4.70;99.90
52879;DHT22;38747;53.140;6.498;2023-01-10T02:11:47;4.70;99.90
52879;DHT22;38747;53.140;6.498;2023-01-10T02:14:13;4.70;99.90
52879;DHT22;38747;53.140;6.498;2023-01-10T02:16:39;4.70;99.90
52879;DHT22;38747;53.140;6.498;2023-01-10T02:19:22;4.70;99.90
52879;DHT22;38747;53.140;6.498;2023-01-10T02:27:35;4.90;99.90
52879;DHT22;38747;53.140;6.498;2023-01-10T02:32:59;5.00;99.90
52879;DHT22;38747;53.140;6.498;2023-01-10T02:35:47;4.90;99.90
52879;DHT22;38747;53.140;6.498;2023-01-10T02:38:31;4.80;99.90
52879;DHT22;38747;53.140;6.498;2023-01-10T02:41:30;4.80;99.90
52879;DHT22;38747;53.140;6.498;2023-01-10T02:44:18;4.70;99.90
52879;DHT22;38747;53.140;6.498;2023-01-10T02:46:47;4.60;99.90
52879;DHT22;38747;53.140;6.498;2023-01-10T02:49:14;4.70;99.90
52879;DHT22;38747;53.140;6.498;2023-01-10T02:51:39;4.60;99.90
52879;DHT22;38747;53.140;6.498;2023-01-10T03:05:28;4.80;99.90
52879;DHT22;38747;53.140;6.498;2023-01-10T03:08:06;4.90;99.90
52879;DHT22;38747;53.140;6.498;2023-01-10T03:10:48;4.90;99.90
52879;DHT22;38747;53.140;6.498;2023-01-10T03:13:20;4.90;99.90
52879;DHT22;38747;53.140;6.498;2023-01-10T03:15:51;4.90;99.90
52879;DHT22;38747;53.140;6.498;2023-01-10T03:18:32;4.90;99.90
52879;DHT22;38747;53.140;6.498;2023-01-10T03:20:58;4.90;99.90
52879;DHT22;38747;53.140;6.498;2023-01-10T03:23:27;5.10;99.90
52879;DHT22;38747;53.140;6.498;2023-01-10T03:25:55;5.10;99.90
52879;DHT22;38747;53.140;6.498;2023-01-10T03:28:36;5.20;99.90
52879;DHT22;38747;53.140;6.498;2023-01-10T03:31:20;5.20;99.90
52879;DHT22;38747;53.140;6.498;2023-01-10T03:33:48;5.20;99.90
52879;DHT22;38747;53.140;6.498;2023-01-10T03:47:26;5.30;99.90
52879;DHT22;38747;53.140;6.498;2023-01-10T03:50:17;5.40;99.90
52879;DHT22;38747;53.140;6.498;2023-01-10T03:52:44;5.40;99.90
52879;DHT22;38747;53.140;6.498;2023-01-10T03:55:11;5.40;99.90
52879;DHT22;38747;53.140;6.498;2023-01-10T03:57:41;5.40;99.90
52879;DHT22;38747;53.140;6.498;2023-01-10T04:00:07;5.40;99.90
52879;DHT22;38747;53.140;6.498;2023-01-10T04:02:34;5.40;99.90
52879;DHT22;38747;53.140;6.498;2023-01-10T04:04:59;5.40;99.90
52879;DHT22;38747;53.140;6.498;2023-01-10T04:07:25;5.40;99.90
52879;DHT22;38747;53.140;6.498;2023-01-10T04:09:51;5.30;99.90
52879;DHT22;38747;53.140;6.498;2023-01-10T04:12:17;5.20;99.90
52879;DHT22;38747;53.140;6.498;2023-01-10T04:14:42;5.20;99.90
52879;DHT22;38747;53.140;6.498;2023-01-10T04:17:11;5.10;99.90
52879;DHT22;38747;53.140;6.498;2023-01-10T04:19:37;5.10;99.90
52879;DHT22;38747;53.140;6.498;2023-01-10T04:22:03;5.00;99.90
52879;DHT22;38747;53.140;6.498;2023-01-10T04:24:30;4.90;99.90
52879;DHT22;38747;53.140;6.498;2023-01-10T04:26:56;4.90;99.90
52879;DHT22;38747;53.140;6.498;2023-01-10T04:29:21;4.80;99.90
52879;DHT22;38747;53.140;6.498;2023-01-10T04:31:47;4.80;99.90
52879;DHT22;38747;53.140;6.498;2023-01-10T04:34:13;4.90;99.90
52879;DHT22;38747;53.140;6.498;2023-01-10T04:36:38;4.90;99.90
52879;DHT22;38747;53.140;6.498;2023-01-10T04:39:04;4.90;99.90
52879;DHT22;38747;53.140;6.498;2023-01-10T04:41:30;4.90;99.90
52879;DHT22;38747;53.140;6.498;2023-01-10T04:43:55;4.80;99.90
52879;DHT22;38747;53.140;6.498;2023-01-10T04:46:21;4.80;99.90
52879;DHT22;38747;53.140;6.498;2023-01-10T04:48:47;4.80;99.90
52879;DHT22;38747;53.140;6.498;2023-01-10T04:51:12;4.80;99.90
52879;DHT22;38747;53.140;6.498;2023-01-10T04:53:38;4.80;99.90
52879;DHT22;38747;53.140;6.498;2023-01-10T04:56:05;4.80;99.90
52879;DHT22;38747;53.140;6.498;2023-01-10T04:58:35;4.90;99.90
52879;DHT22;38747;53.140;6.498;2023-01-10T05:01:12;5.00;99.90
52879;DHT22;38747;53.140;6.498;2023-01-10T05:03:38;5.10;99.90
52879;DHT22;38747;53.140;6.498;2023-01-10T05:06:04;5.20;99.90
52879;DHT22;38747;53.140;6.498;2023-01-10T05:08:30;5.20;99.90
52879;DHT22;38747;53.140;6.498;2023-01-10T05:10:55;5.20;99.90
52879;DHT22;38747;53.140;6.498;2023-01-10T05:13:21;5.30;99.90
52879;DHT22;38747;53.140;6.498;2023-01-10T05:15:47;5.20;99.90
52879;DHT22;38747;53.140;6.498;2023-01-10T05:18:12;5.20;99.90
52879;DHT22;38747;53.140;6.498;2023-01-10T05:20:38;5.10;99.90
52879;DHT22;38747;53.140;6.498;2023-01-10T05:23:04;5.10;99.90
52879;DHT22;38747;53.140;6.498;2023-01-10T05:25:29;5.10;99.90
52879;DHT22;38747;53.140;6.498;2023-01-10T05:27:55;5.20;99.90
52879;DHT22;38747;53.140;6.498;2023-01-10T05:30:21;5.20;99.90
52879;DHT22;38747;53.140;6.498;2023-01-10T05:32:46;5.20;99.90
52879;DHT22;38747;53.140;6.498;2023-01-10T05:35:12;5.30;99.90
52879;DHT22;38747;53.140;6.498;2023-01-10T05:37:37;5.40;99.90
52879;DHT22;38747;53.140;6.498;2023-01-10T05:40:04;5.30;99.90
52879;DHT22;38747;53.140;6.498;2023-01-10T05:42:29;5.40;99.90
52879;DHT22;38747;53.140;6.498;2023-01-10T05:44:55;5.40;99.90
52879;DHT22;38747;53.140;6.498;2023-01-10T05:47:21;5.30;99.90
52879;DHT22;38747;53.140;6.498;2023-01-10T05:49:46;5.40;99.90
52879;DHT22;38747;53.140;6.498;2023-01-10T05:52:12;5.50;99.90
52879;DHT22;38747;53.140;6.498;2023-01-10T05:54:37;5.40;99.90
52879;DHT22;38747;53.140;6.498;2023-01-10T05:57:03;5.50;99.90
52879;DHT22;38747;53.140;6.498;2023-01-10T05:59:29;5.50;99.90
52879;DHT22;38747;53.140;6.498;2023-01-10T06:01:54;5.50;99.90
52879;DHT22;38747;53.140;6.498;2023-01-10T06:04:20;5.50;99.90
52879;DHT22;38747;53.140;6.498;2023-01-10T06:06:46;5.50;99.90
52879;DHT22;38747;53.140;6.498;2023-01-10T06:09:11;5.40;99.90
52879;DHT22;38747;53.140;6.498;2023-01-10T06:11:37;5.40;99.90
52879;DHT22;38747;53.140;6.498;2023-01-10T06:14:04;5.40;99.90
52879;DHT22;38747;53.140;6.498;2023-01-10T06:16:30;5.40;99.90
52879;DHT22;38747;53.140;6.498;2023-01-10T06:18:55;5.40;99.90
52879;DHT22;38747;53.140;6.498;2023-01-10T06:21:21;5.40;99.90
52879;DHT22;38747;53.140;6.498;2023-01-10T06:23:47;5.40;99.90
52879;DHT22;38747;53.140;6.498;2023-01-10T06:26:12;5.40;99.90
52879;DHT22;38747;53.140;6.498;2023-01-10T06:28:38;5.40;99.90
52879;DHT22;38747;53.140;6.498;2023-01-10T06:31:06;5.40;99.90
52879;DHT22;38747;53.140;6.498;2023-01-10T06:33:32;5.40;99.90
52879;DHT22;38747;53.140;6.498;2023-01-10T06:35:58;5.40;99.90
52879;DHT22;38747;53.140;6.498;2023-01-10T06:38:24;5.40;99.90
52879;DHT22;38747;53.140;6.498;2023-01-10T06:40:49;5.30;99.90
52879;DHT22;38747;53.140;6.498;2023-01-10T06:43:15;5.30;99.90
52879;DHT22;38747;53.140;6.498;2023-01-10T06:45:41;5.30;99.90
52879;DHT22;38747;53.140;6.498;2023-01-10T06:48:06;5.10;99.90
52879;DHT22;38747;53.140;6.498;2023-01-10T06:50:32;5.10;99.90
52879;DHT22;38747;53.140;6.498;2023-01-10T06:52:59;5.10;99.90
52879;DHT22;38747;53.140;6.498;2023-01-10T06:55:25;5.00;99.90
52879;DHT22;38747;53.140;6.498;2023-01-10T06:58:02;4.80;99.90
52879;DHT22;38747;53.140;6.498;2023-01-10T07:00:29;4.80;99.90
52879;DHT22;38747;53.140;6.498;2023-01-10T07:02:59;4.70;99.90
52879;DHT22;38747;53.140;6.498;2023-01-10T07:05:25;4.70;99.90
52879;DHT22;38747;53.140;6.498;2023-01-10T07:07:51;4.70;99.90
52879;DHT22;38747;53.140;6.498;2023-01-10T07:10:17;4.80;99.90
52879;DHT22;38747;53.140;6.498;2023-01-10T07:12:42;4.80;99.90
52879;DHT22;38747;53.140;6.498;2023-01-10T07:15:09;4.90;99.90
52879;DHT22;38747;53.140;6.498;2023-01-10T07:17:34;5.00;99.90
52879;DHT22;38747;53.140;6.498;2023-01-10T07:20:00;4.90;99.90
52879;DHT22;38747;53.140;6.498;2023-01-10T07:22:26;5.00;99.90
52879;DHT22;38747;53.140;6.498;2023-01-10T07:24:51;4.90;99.90
52879;DHT22;38747;53.140;6.498;2023-01-10T07:27:19;5.00;99.90
52879;DHT22;38747;53.140;6.498;2023-01-10T07:29:44;5.00;99.90
52879;DHT22;38747;53.140;6.498;2023-01-10T07:32:10;5.10;99.90
52879;DHT22;38747;53.140;6.498;2023-01-10T07:34:35;5.10;99.90
52879;DHT22;38747;53.140;6.498;2023-01-10T07:37:01;5.20;99.90
52879;DHT22;38747;53.140;6.498;2023-01-10T07:39:27;5.20;99.90
52879;DHT22;38747;53.140;6.498;2023-01-10T07:41:52;5.20;99.90
52879;DHT22;38747;53.140;6.498;2023-01-10T07:44:19;5.30;99.90
52879;DHT22;38747;53.140;6.498;2023-01-10T07:46:45;5.30;99.90
52879;DHT22;38747;53.140;6.498;2023-01-10T07:49:11;5.30;99.90
52879;DHT22;38747;53.140;6.498;2023-01-10T07:51:38;5.30;99.90
52879;DHT22;38747;53.140;6.498;2023-01-10T07:54:04;5.40;99.90
52879;DHT22;38747;53.140;6.498;2023-01-10T07:56:30;5.40;99.90
52879;DHT22;38747;53.140;6.498;2023-01-10T07:58:56;5.40;99.90
52879;DHT22;38747;53.140;6.498;2023-01-10T08:01:21;5.40;99.90
52879;DHT22;38747;53.140;6.498;2023-01-10T08:03:49;5.40;99.90
52879;DHT22;38747;53.140;6.498;2023-01-10T08:06:14;5.40;99.90
52879;DHT22;38747;53.140;6.498;2023-01-10T08:08:40;5.40;99.90
52879;DHT22;38747;53.140;6.498;2023-01-10T08:11:06;5.40;99.90
52879;DHT22;38747;53.140;6.498;2023-01-10T08:13:32;5.30;99.90
52879;DHT22;38747;53.140;6.498;2023-01-10T08:15:57;5.30;99.90
52879;DHT22;38747;53.140;6.498;2023-01-10T08:18:23;5.30;99.90
52879;DHT22;38747;53.140;6.498;2023-01-10T08:20:51;5.30;99.90
52879;DHT22;38747;53.140;6.498;2023-01-10T08:23:17;5.30;99.90
52879;DHT22;38747;53.140;6.498;2023-01-10T08:25:43;5.40;99.90
52879;DHT22;38747;53.140;6.498;2023-01-10T08:28:09;5.40;99.90
52879;DHT22;38747;53.140;6.498;2023-01-10T08:30:35;5.40;99.90
52879;DHT22;38747;53.140;6.498;2023-01-10T08:33:03;5.30;99.90
52879;DHT22;38747;53.140;6.498;2023-01-10T08:35:29;5.30;99.90
52879;DHT22;38747;53.140;6.498;2023-01-10T08:37:58;5.30;99.90
52879;DHT22;38747;53.140;6.498;2023-01-10T08:40:25;5.30;99.90
52879;DHT22;38747;53.140;6.498;2023-01-10T08:43:02;5.20;99.90
52879;DHT22;38747;53.140;6.498;2023-01-10T08:45:30;5.20;99.90
52879;DHT22;38747;53.140;6.498;2023-01-10T08:47:56;5.30;99.90
52879;DHT22;38747;53.140;6.498;2023-01-10T08:50:22;5.20;99.90
52879;DHT22;38747;53.140;6.498;2023-01-10T08:52:48;5.20;99.90
52879;DHT22;38747;53.140;6.498;2023-01-10T08:55:13;5.10;99.90
52879;DHT22;38747;53.140;6.498;2023-01-10T08:57:39;5.20;99.90
52879;DHT22;38747;53.140;6.498;2023-01-10T09:00:05;5.30;99.90
52879;DHT22;38747;53.140;6.498;2023-01-10T09:02:31;5.30;99.90
52879;DHT22;38747;53.140;6.498;2023-01-10T09:04:57;5.30;99.90
52879;DHT22;38747;53.140;6.498;2023-01-10T09:07:22;5.30;99.90
52879;DHT22;38747;53.140;6.498;2023-01-10T09:09:48;5.40;99.90
52879;DHT22;38747;53.140;6.498;2023-01-10T09:12:14;5.40;99.90
52879;DHT22;38747;53.140;6.498;2023-01-10T09:14:58;5.40;99.90
52879;DHT22;38747;53.140;6.498;2023-01-10T09:17:23;5.40;99.90
52879;DHT22;38747;53.140;6.498;2023-01-10T09:19:49;5.40;99.90
52879;DHT22;38747;53.140;6.498;2023-01-10T09:22:15;5.50;99.90
52879;DHT22;38747;53.140;6.498;2023-01-10T09:24:40;5.60;99.90
52879;DHT22;38747;53.140;6.498;2023-01-10T09:27:09;5.70;99.90
52879;DHT22;38747;53.140;6.498;2023-01-10T09:29:34;5.70;99.90
52879;DHT22;38747;53.140;6.498;2023-01-10T09:32:00;5.80;99.90
52879;DHT22;38747;53.140;6.498;2023-01-10T09:34:25;5.80;99.90
52879;DHT22;38747;53.140;6.498;2023-01-10T09:36:52;5.80;99.90
52879;DHT22;38747;53.140;6.498;2023-01-10T09:39:21;5.90;99.90
52879;DHT22;38747;53.140;6.498;2023-01-10T09:49:41;6.00;99.90
52879;DHT22;38747;53.140;6.498;2023-01-10T09:54:46;6.10;99.90
52879;DHT22;38747;53.140;6.498;2023-01-10T09:57:15;6.10;99.90
52879;DHT22;38747;53.140;6.498;2023-01-10T09:59:42;6.20;99.90
52879;DHT22;38747;53.140;6.498;2023-01-10T10:02:32;6.20;99.90
52879;DHT22;38747;53.140;6.498;2023-01-10T10:07:44;6.20;99.90
52879;DHT22;38747;53.140;6.498;2023-01-10T10:10:17;6.20;99.90
52879;DHT22;38747;53.140;6.498;2023-01-10T10:17:47;6.30;99.90
52879;DHT22;38747;53.140;6.498;2023-01-10T10:28:36;6.40;99.90
52879;DHT22;38747;53.140;6.498;2023-01-10T10:31:31;6.40;99.90
52879;DHT22;38747;53.140;6.498;2023-01-10T10:34:23;6.40;99.90
52879;DHT22;38747;53.140;6.498;2023-01-10T10:36:59;6.40;99.90
52879;DHT22;38747;53.140;6.498;2023-01-10T10:39:49;6.40;99.90
52879;DHT22;38747;53.140;6.498;2023-01-10T10:42:17;6.40;99.90
52879;DHT22;38747;53.140;6.498;2023-01-10T10:44:50;6.40;99.90
52879;DHT22;38747;53.140;6.498;2023-01-10T10:47:19;6.50;99.90
52879;DHT22;38747;53.140;6.498;2023-01-10T10:49:51;6.50;99.90
52879;DHT22;38747;53.140;6.498;2023-01-10T10:52:27;6.50;99.90
52879;DHT22;38747;53.140;6.498;2023-01-10T10:54:56;6.60;99.90
52879;DHT22;38747;53.140;6.498;2023-01-10T10:57:26;6.60;99.90
52879;DHT22;38747;53.140;6.498;2023-01-10T10:59:52;6.60;99.90
52879;DHT22;38747;53.140;6.498;2023-01-10T11:04:49;6.60;99.90
52879;DHT22;38747;53.140;6.498;2023-01-10T11:07:17;6.70;99.90
52879;DHT22;38747;53.140;6.498;2023-01-10T11:09:43;6.70;99.90
52879;DHT22;38747;53.140;6.498;2023-01-10T11:12:29;6.70;99.90
52879;DHT22;38747;53.140;6.498;2023-01-10T11:14:55;6.70;99.90
52879;DHT22;38747;53.140;6.498;2023-01-10T11:17:26;6.70;99.90
52879;DHT22;38747;53.140;6.498;2023-01-10T11:20:04;6.70;99.90
52879;DHT22;38747;53.140;6.498;2023-01-10T11:22:47;6.70;99.90
52879;DHT22;38747;53.140;6.498;2023-01-10T11:25:18;6.80;99.90
52879;DHT22;38747;53.140;6.498;2023-01-10T11:27:51;6.80;99.90
52879;DHT22;38747;53.140;6.498;2023-01-10T11:30:24;6.80;99.90
52879;DHT22;38747;53.140;6.498;2023-01-10T11:32:57;6.80;99.90
52879;DHT22;38747;53.140;6.498;2023-01-10T11:35:27;6.80;99.90
52879;DHT22;38747;53.140;6.498;2023-01-10T11:40:31;6.80;99.90
52879;DHT22;38747;53.140;6.498;2023-01-10T11:42:58;6.80;99.90
52879;DHT22;38747;53.140;6.498;2023-01-10T11:45:25;6.80;99.90
52879;DHT22;38747;53.140;6.498;2023-01-10T11:50:38;6.80;99.90
52879;DHT22;38747;53.140;6.498;2023-01-10T11:53:06;6.80;99.90
52879;DHT22;38747;53.140;6.498;2023-01-10T11:55:50;6.80;99.90
52879;DHT22;38747;53.140;6.498;2023-01-10T11:58:15;6.70;99.90
52879;DHT22;38747;53.140;6.498;2023-01-10T12:00:46;6.80;99.90
52879;DHT22;38747;53.140;6.498;2023-01-10T12:03:25;6.70;99.90
52879;DHT22;38747;53.140;6.498;2023-01-10T12:05:56;6.70;99.90
52879;DHT22;38747;53.140;6.498;2023-01-10T12:08:36;6.70;99.90
52879;DHT22;38747;53.140;6.498;2023-01-10T12:13:55;6.70;99.90
52879;DHT22;38747;53.140;6.498;2023-01-10T12:16:32;6.70;99.90
52879;DHT22;38747;53.140;6.498;2023-01-10T12:19:01;6.70;99.90
52879;DHT22;38747;53.140;6.498;2023-01-10T12:21:39;6.60;99.90
52879;DHT22;38747;53.140;6.498;2023-01-10T12:26:40;6.70;99.90
52879;DHT22;38747;53.140;6.498;2023-01-10T12:29:11;6.70;99.90
52879;DHT22;38747;53.140;6.498;2023-01-10T12:31:39;6.60;99.90
52879;DHT22;38747;53.140;6.498;2023-01-10T12:34:18;6.70;99.90
52879;DHT22;38747;53.140;6.498;2023-01-10T12:37:13;6.60;99.90
52879;DHT22;38747;53.140;6.498;2023-01-10T12:39:47;6.70;99.90
52879;DHT22;38747;53.140;6.498;2023-01-10T12:42:16;6.60;99.90
52879;DHT22;38747;53.140;6.498;2023-01-10T12:45:26;6.70;99.90
52879;DHT22;38747;53.140;6.498;2023-01-10T12:48:54;6.60;99.90
52879;DHT22;38747;53.140;6.498;2023-01-10T12:51:05;6.60;99.90
52879;DHT22;38747;53.140;6.498;2023-01-10T12:54:04;6.60;99.90
52879;DHT22;38747;53.140;6.498;2023-01-10T12:56:29;6.60;99.90
52879;DHT22;38747;53.140;6.498;2023-01-10T12:59:04;6.50;99.90
52879;DHT22;38747;53.140;6.498;2023-01-10T13:01:34;6.50;99.90
52879;DHT22;38747;53.140;6.498;2023-01-10T13:04:16;6.50;99.90
52879;DHT22;38747;53.140;6.498;2023-01-10T13:06:43;6.50;99.90
52879;DHT22;38747;53.140;6.498;2023-01-10T13:09:16;6.50;99.90
52879;DHT22;38747;53.140;6.498;2023-01-10T13:14:54;6.50;99.90
52879;DHT22;38747;53.140;6.498;2023-01-10T13:22:41;6.50;99.90
52879;DHT22;38747;53.140;6.498;2023-01-10T13:25:29;6.50;99.90
52879;DHT22;38747;53.140;6.498;2023-01-10T13:30:37;6.40;99.90
52879;DHT22;38747;53.140;6.498;2023-01-10T13:33:27;6.40;99.90
52879;DHT22;38747;53.140;6.498;2023-01-10T13:35:57;6.40;99.90
52879;DHT22;38747;53.140;6.498;2023-01-10T13:38:46;6.40;99.90
52879;DHT22;38747;53.140;6.498;2023-01-10T13:41:13;6.40;99.90
52879;DHT22;38747;53.140;6.498;2023-01-10T13:51:20;6.30;99.90
52879;DHT22;38747;53.140;6.498;2023-01-10T13:56:37;6.30;99.90
52879;DHT22;38747;53.140;6.498;2023-01-10T13:59:10;6.30;99.90
52879;DHT22;38747;53.140;6.498;2023-01-10T14:01:46;6.20;99.90
52879;DHT22;38747;53.140;6.498;2023-01-10T14:04:51;6.20;99.90
52879;DHT22;38747;53.140;6.498;2023-01-10T14:07:47;6.20;99.90
52879;DHT22;38747;53.140;6.498;2023-01-10T14:10:32;6.20;99.90
52879;DHT22;38747;53.140;6.498;2023-01-10T14:13:01;6.20;99.90
52879;DHT22;38747;53.140;6.498;2023-01-10T14:15:42;6.10;99.90
52879;DHT22;38747;53.140;6.498;2023-01-10T14:18:24;6.10;99.90
52879;DHT22;38747;53.140;6.498;2023-01-10T14:21:05;6.20;99.90
52879;DHT22;38747;53.140;6.498;2023-01-10T14:23:35;6.10;99.90
52879;DHT22;38747;53.140;6.498;2023-01-10T14:26:03;6.10;99.90
52879;DHT22;38747;53.140;6.498;2023-01-10T14:28:32;6.10;99.90
52879;DHT22;38747;53.140;6.498;2023-01-10T14:31:16;6.10;99.90
52879;DHT22;38747;53.140;6.498;2023-01-10T14:33:43;6.10;99.90
52879;DHT22;38747;53.140;6.498;2023-01-10T14:36:14;6.10;99.90
52879;DHT22;38747;53.140;6.498;2023-01-10T14:38:43;6.10;99.90
52879;DHT22;38747;53.140;6.498;2023-01-10T14:41:17;6.10;99.90
52879;DHT22;38747;53.140;6.498;2023-01-10T14:43:56;6.00;99.90
52879;DHT22;38747;53.140;6.498;2023-01-10T14:46:30;6.00;99.90
52879;DHT22;38747;53.140;6.498;2023-01-10T14:48:57;6.00;99.90
52879;DHT22;38747;53.140;6.498;2023-01-10T14:51:30;6.00;99.90
52879;DHT22;38747;53.140;6.498;2023-01-10T14:54:01;6.00;99.90
52879;DHT22;38747;53.140;6.498;2023-01-10T14:59:24;6.00;99.90
52879;DHT22;38747;53.140;6.498;2023-01-10T15:01:53;6.00;99.90
52879;DHT22;38747;53.140;6.498;2023-01-10T15:04:21;6.10;99.90
52879;DHT22;38747;53.140;6.498;2023-01-10T15:06:56;6.00;99.90
52879;DHT22;38747;53.140;6.498;2023-01-10T15:09:25;6.00;99.90
52879;DHT22;38747;53.140;6.498;2023-01-10T15:11:52;6.10;99.90
52879;DHT22;38747;53.140;6.498;2023-01-10T15:14:20;6.10;99.90
52879;DHT22;38747;53.140;6.498;2023-01-10T15:16:48;6.10;99.90
52879;DHT22;38747;53.140;6.498;2023-01-10T15:19:20;6.10;99.90
52879;DHT22;38747;53.140;6.498;2023-01-10T15:21:46;6.20;99.90
52879;DHT22;38747;53.140;6.498;2023-01-10T15:24:34;6.20;99.90
52879;DHT22;38747;53.140;6.498;2023-01-10T15:27:13;6.20;99.90
52879;DHT22;38747;53.140;6.498;2023-01-10T15:29:41;6.20;99.90
52879;DHT22;38747;53.140;6.498;2023-01-10T15:32:34;6.20;99.90
52879;DHT22;38747;53.140;6.498;2023-01-10T15:35:04;6.20;99.90
52879;DHT22;38747;53.140;6.498;2023-01-10T15:37:34;6.20;99.90
52879;DHT22;38747;53.140;6.498;2023-01-10T15:40:04;6.20;99.90
52879;DHT22;38747;53.140;6.498;2023-01-10T15:42:31;6.20;99.90
52879;DHT22;38747;53.140;6.498;2023-01-10T15:44:57;6.20;99.90
52879;DHT22;38747;53.140;6.498;2023-01-10T15:47:51;6.20;99.90
52879;DHT22;38747;53.140;6.498;2023-01-10T15:50:27;6.20;99.90
52879;DHT22;38747;53.140;6.498;2023-01-10T15:53:02;6.20;99.90
52879;DHT22;38747;53.140;6.498;2023-01-10T15:55:48;6.20;99.90
52879;DHT22;38747;53.140;6.498;2023-01-10T15:58:31;6.20;99.90
52879;DHT22;38747;53.140;6.498;2023-01-10T16:01:00;6.20;99.90
52879;DHT22;38747;53.140;6.498;2023-01-10T16:03:35;6.20;99.90
52879;DHT22;38747;53.140;6.498;2023-01-10T16:06:01;6.20;99.90
52879;DHT22;38747;53.140;6.498;2023-01-10T16:08:34;6.20;99.90
52879;DHT22;38747;53.140;6.498;2023-01-10T16:11:03;6.20;99.90
52879;DHT22;38747;53.140;6.498;2023-01-10T16:13:30;6.20;99.90
52879;DHT22;38747;53.140;6.498;2023-01-10T16:15:58;6.10;99.90
52879;DHT22;38747;53.140;6.498;2023-01-10T16:18:25;6.10;99.90
52879;DHT22;38747;53.140;6.498;2023-01-10T16:20:54;6.10;99.90
52879;DHT22;38747;53.140;6.498;2023-01-10T16:23:23;6.00;99.90
52879;DHT22;38747;53.140;6.498;2023-01-10T16:25:55;6.00;99.90
52879;DHT22;38747;53.140;6.498;2023-01-10T16:28:21;6.10;99.90
52879;DHT22;38747;53.140;6.498;2023-01-10T16:30:47;6.10;99.90
52879;DHT22;38747;53.140;6.498;2023-01-10T16:33:15;6.00;99.90
52879;DHT22;38747;53.140;6.498;2023-01-10T16:35:46;6.00;99.90
52879;DHT22;38747;53.140;6.498;2023-01-10T16:38:13;6.00;99.90
52879;DHT22;38747;53.140;6.498;2023-01-10T16:40:43;6.00;99.90
52879;DHT22;38747;53.140;6.498;2023-01-10T16:43:10;6.00;99.90
52879;DHT22;38747;53.140;6.498;2023-01-10T16:45:47;6.00;99.90
52879;DHT22;38747;53.140;6.498;2023-01-10T16:48:14;5.90;99.90
52879;DHT22;38747;53.140;6.498;2023-01-10T16:50:41;6.00;99.90
52879;DHT22;38747;53.140;6.498;2023-01-10T16:53:12;6.00;99.90
52879;DHT22;38747;53.140;6.498;2023-01-10T16:55:41;6.00;99.90
52879;DHT22;38747;53.140;6.498;2023-01-10T16:58:08;5.90;99.90
52879;DHT22;38747;53.140;6.498;2023-01-10T17:00:36;5.90;99.90
52879;DHT22;38747;53.140;6.498;2023-01-10T17:03:07;5.90;99.90
52879;DHT22;38747;53.140;6.498;2023-01-10T17:05:36;5.90;99.90
52879;DHT22;38747;53.140;6.498;2023-01-10T17:08:03;5.90;99.90
52879;DHT22;38747;53.140;6.498;2023-01-10T17:10:32;5.90;99.90
52879;DHT22;38747;53.140;6.498;2023-01-10T17:13:00;5.90;99.90
52879;DHT22;38747;53.140;6.498;2023-01-10T17:15:27;5.90;99.90
52879;DHT22;38747;53.140;6.498;2023-01-10T17:17:53;5.90;99.90
52879;DHT22;38747;53.140;6.498;2023-01-10T17:20:19;5.90;99.90
52879;DHT22;38747;53.140;6.498;2023-01-10T17:22:48;6.00;99.90
52879;DHT22;38747;53.140;6.498;2023-01-10T17:25:15;5.90;99.90
52879;DHT22;38747;53.140;6.498;2023-01-10T17:27:41;5.90;99.90
52879;DHT22;38747;53.140;6.498;2023-01-10T17:30:08;5.90;99.90
52879;DHT22;38747;53.140;6.498;2023-01-10T17:32:34;5.90;99.90
52879;DHT22;38747;53.140;6.498;2023-01-10T17:35:00;6.00;99.90
52879;DHT22;38747;53.140;6.498;2023-01-10T17:37:26;6.00;99.90
52879;DHT22;38747;53.140;6.498;2023-01-10T17:39:52;6.00;99.90
52879;DHT22;38747;53.140;6.498;2023-01-10T17:42:18;6.00;99.90